sensor_id;sensor_type;location;lat;lon;timestamp;temperature;humidity
27896;DHT22;15241;48.374;10.876;2022-09-29T00:00:19;8.90;99.90
27896;DHT22;15241;48.374;10.876;2022-09-29T00:05:18;8.90;99.90
27896;DHT22;15241;48.374;10.876;2022-09-29T00:10:17;9.00;99.90
27896;DHT22;15241;48.374;10.876;2022-09-29T00:15:17;9.00;99.90
27896;DHT22;15241;48.374;10.876;2022-09-29T00:20:16;9.00;99.90
27896;DHT22;15241;48.374;10.876;2022-09-29T00:25:15;9.10;99.90
27896;DHT22;15241;48.374;10.876;2022-09-29T00:30:15;9.10;99.90
27896;DHT22;15241;48.374;10.876;2022-09-29T00:35:14;9.10;99.90
27896;DHT22;15241;48.374;10.876;2022-09-29T00:40:13;9.20;99.90
27896;DHT22;15241;48.374;10.876;2022-09-29T00:45:17;9.30;99.90
27896;DHT22;15241;48.374;10.876;2022-09-29T00:50:20;9.40;99.90
27896;DHT22;15241;48.374;10.876;2022-09-29T01:00:29;9.40;99.90
27896;DHT22;15241;48.374;10.876;2022-09-29T01:10:38;9.40;99.90
27896;DHT22;15241;48.374;10.876;2022-09-29T01:15:37;9.50;99.90
27896;DHT22;15241;48.374;10.876;2022-09-29T01:20:56;9.50;99.90
27896;DHT22;15241;48.374;10.876;2022-09-29T01:31:45;9.40;99.90
27896;DHT22;15241;48.374;10.876;2022-09-29T01:41:56;9.40;99.90
27896;DHT22;15241;48.374;10.876;2022-09-29T01:47:00;9.50;99.90
27896;DHT22;15241;48.374;10.876;2022-09-29T01:52:01;9.40;99.90
27896;DHT22;15241;48.374;10.876;2022-09-29T01:57:05;9.50;99.90
27896;DHT22;15241;48.374;10.876;2022-09-29T02:02:06;9.50;99.90
27896;DHT22;15241;48.374;10.876;2022-09-29T02:12:18;9.50;99.90
27896;DHT22;15241;48.374;10.876;2022-09-29T02:17:19;9.50;99.90
27896;DHT22;15241;48.374;10.876;2022-09-29T02:22:18;9.60;99.90
27896;DHT22;15241;48.374;10.876;2022-09-29T02:27:17;9.60;99.90
27896;DHT22;15241;48.374;10.876;2022-09-29T02:32:16;9.60;99.90
27896;DHT22;15241;48.374;10.876;2022-09-29T02:37:30;9.60;99.90
27896;DHT22;15241;48.374;10.876;2022-09-29T02:42:32;9.40;99.90
27896;DHT22;15241;48.374;10.876;2022-09-29T02:47:39;9.50;99.90
27896;DHT22;15241;48.374;10.876;2022-09-29T02:52:41;9.40;99.90
27896;DHT22;15241;48.374;10.876;2022-09-29T02:57:43;9.50;99.90
27896;DHT22;15241;48.374;10.876;2022-09-29T03:02:44;9.60;99.90
27896;DHT22;15241;48.374;10.876;2022-09-29T03:07:43;9.50;99.90
27896;DHT22;15241;48.374;10.876;2022-09-29T03:12:42;9.50;99.90
27896;DHT22;15241;48.374;10.876;2022-09-29T03:17:41;9.40;99.90
27896;DHT22;15241;48.374;10.876;2022-09-29T03:27:47;9.30;99.90
27896;DHT22;15241;48.374;10.876;2022-09-29T03:32:46;9.30;99.90
27896;DHT22;15241;48.374;10.876;2022-09-29T03:37:45;9.20;99.90
27896;DHT22;15241;48.374;10.876;2022-09-29T03:42:46;9.20;99.90
27896;DHT22;15241;48.374;10.876;2022-09-29T03:47:45;9.20;99.90
27896;DHT22;15241;48.374;10.876;2022-09-29T03:52:44;9.20;99.90
27896;DHT22;15241;48.374;10.876;2022-09-29T03:57:43;9.20;99.90
27896;DHT22;15241;48.374;10.876;2022-09-29T04:02:43;9.20;99.90
27896;DHT22;15241;48.374;10.876;2022-09-29T04:07:42;9.20;99.90
27896;DHT22;15241;48.374;10.876;2022-09-29T04:12:40;9.20;99.90
27896;DHT22;15241;48.374;10.876;2022-09-29T04:17:39;9.10;99.90
27896;DHT22;15241;48.374;10.876;2022-09-29T04:22:38;9.10;99.90
27896;DHT22;15241;48.374;10.876;2022-09-29T04:27:37;9.10;99.90
27896;DHT22;15241;48.374;10.876;2022-09-29T04:32:36;9.10;99.90
27896;DHT22;15241;48.374;10.876;2022-09-29T04:37:35;9.00;99.90
27896;DHT22;15241;48.374;10.876;2022-09-29T04:42:34;9.00;99.90
27896;DHT22;15241;48.374;10.876;2022-09-29T04:47:33;9.10;99.90
27896;DHT22;15241;48.374;10.876;2022-09-29T04:52:32;9.20;99.90
27896;DHT22;15241;48.374;10.876;2022-09-29T04:57:31;9.30;99.90
27896;DHT22;15241;48.374;10.876;2022-09-29T05:02:30;9.40;99.90
27896;DHT22;15241;48.374;10.876;2022-09-29T05:12:36;9.30;99.90
27896;DHT22;15241;48.374;10.876;2022-09-29T05:17:35;9.40;99.90
27896;DHT22;15241;48.374;10.876;2022-09-29T05:22:34;9.50;99.90
27896;DHT22;15241;48.374;10.876;2022-09-29T05:27:33;9.50;99.90
27896;DHT22;15241;48.374;10.876;2022-09-29T05:32:32;9.50;99.90
27896;DHT22;15241;48.374;10.876;2022-09-29T05:37:31;9.60;99.90
27896;DHT22;15241;48.374;10.876;2022-09-29T05:42:30;9.70;99.90
27896;DHT22;15241;48.374;10.876;2022-09-29T05:47:28;9.80;99.90
27896;DHT22;15241;48.374;10.876;2022-09-29T05:52:27;9.80;99.90
27896;DHT22;15241;48.374;10.876;2022-09-29T05:57:26;9.90;99.90
27896;DHT22;15241;48.374;10.876;2022-09-29T06:07:37;10.10;99.90
27896;DHT22;15241;48.374;10.876;2022-09-29T06:12:37;10.30;99.90
27896;DHT22;15241;48.374;10.876;2022-09-29T06:17:36;10.40;99.90
27896;DHT22;15241;48.374;10.876;2022-09-29T06:22:35;10.50;99.90
27896;DHT22;15241;48.374;10.876;2022-09-29T06:27:33;10.60;99.90
27896;DHT22;15241;48.374;10.876;2022-09-29T06:32:33;10.70;99.90
27896;DHT22;15241;48.374;10.876;2022-09-29T06:37:31;10.70;99.90
27896;DHT22;15241;48.374;10.876;2022-09-29T06:42:30;10.80;99.90
27896;DHT22;15241;48.374;10.876;2022-09-29T06:47:29;10.90;99.90
27896;DHT22;15241;48.374;10.876;2022-09-29T06:52:28;10.90;99.90
27896;DHT22;15241;48.374;10.876;2022-09-29T06:57:27;11.00;99.90
27896;DHT22;15241;48.374;10.876;2022-09-29T07:02:26;11.00;99.90
27896;DHT22;15241;48.374;10.876;2022-09-29T07:07:25;11.10;99.90
27896;DHT22;15241;48.374;10.876;2022-09-29T07:12:24;11.10;99.90
27896;DHT22;15241;48.374;10.876;2022-09-29T07:17:23;11.30;99.90
27896;DHT22;15241;48.374;10.876;2022-09-29T07:22:22;11.40;99.90
27896;DHT22;15241;48.374;10.876;2022-09-29T07:27:21;11.50;99.90
27896;DHT22;15241;48.374;10.876;2022-09-29T07:32:20;11.60;99.90
27896;DHT22;15241;48.374;10.876;2022-09-29T07:37:19;11.70;99.90
27896;DHT22;15241;48.374;10.876;2022-09-29T07:42:17;11.70;99.90
27896;DHT22;15241;48.374;10.876;2022-09-29T07:47:16;11.80;99.90
27896;DHT22;15241;48.374;10.876;2022-09-29T07:52:15;11.90;99.90
27896;DHT22;15241;48.374;10.876;2022-09-29T07:57:14;11.90;99.90
27896;DHT22;15241;48.374;10.876;2022-09-29T08:02:13;11.90;99.90
27896;DHT22;15241;48.374;10.876;2022-09-29T08:07:12;12.00;99.90
27896;DHT22;15241;48.374;10.876;2022-09-29T08:12:12;12.00;99.90
27896;DHT22;15241;48.374;10.876;2022-09-29T08:17:11;12.00;99.90
27896;DHT22;15241;48.374;10.876;2022-09-29T08:22:10;12.10;99.90
27896;DHT22;15241;48.374;10.876;2022-09-29T08:27:09;12.20;99.90
27896;DHT22;15241;48.374;10.876;2022-09-29T08:32:07;12.30;99.90
27896;DHT22;15241;48.374;10.876;2022-09-29T08:37:06;12.40;99.90
27896;DHT22;15241;48.374;10.876;2022-09-29T08:42:10;12.50;99.90
27896;DHT22;15241;48.374;10.876;2022-09-29T08:47:17;12.50;99.90
27896;DHT22;15241;48.374;10.876;2022-09-29T08:52:19;12.60;99.90
27896;DHT22;15241;48.374;10.876;2022-09-29T08:57:20;12.80;99.90
27896;DHT22;15241;48.374;10.876;2022-09-29T09:07:59;13.20;99.90
27896;DHT22;15241;48.374;10.876;2022-09-29T09:13:44;13.50;99.90
27896;DHT22;15241;48.374;10.876;2022-09-29T09:24:08;13.90;99.90
27896;DHT22;15241;48.374;10.876;2022-09-29T09:29:12;14.00;99.90
27896;DHT22;15241;48.374;10.876;2022-09-29T09:34:15;14.20;99.90
27896;DHT22;15241;48.374;10.876;2022-09-29T09:39:17;14.30;99.90
27896;DHT22;15241;48.374;10.876;2022-09-29T09:44:19;14.40;99.90
27896;DHT22;15241;48.374;10.876;2022-09-29T09:49:21;14.50;99.90
27896;DHT22;15241;48.374;10.876;2022-09-29T09:54:26;14.70;99.90
27896;DHT22;15241;48.374;10.876;2022-09-29T09:59:32;14.80;99.90
27896;DHT22;15241;48.374;10.876;2022-09-29T10:04:32;14.70;99.90
27896;DHT22;15241;48.374;10.876;2022-09-29T10:09:31;14.70;99.90
27896;DHT22;15241;48.374;10.876;2022-09-29T10:14:30;14.60;99.90
27896;DHT22;15241;48.374;10.876;2022-09-29T10:19:55;14.30;99.90
27896;DHT22;15241;48.374;10.876;2022-09-29T10:24:56;14.40;99.90
27896;DHT22;15241;48.374;10.876;2022-09-29T10:29:56;14.60;99.90
27896;DHT22;15241;48.374;10.876;2022-09-29T10:35:02;14.60;99.90
27896;DHT22;15241;48.374;10.876;2022-09-29T10:40:12;14.30;99.90
27896;DHT22;15241;48.374;10.876;2022-09-29T10:45:13;14.10;99.90
27896;DHT22;15241;48.374;10.876;2022-09-29T10:50:15;14.00;99.90
27896;DHT22;15241;48.374;10.876;2022-09-29T10:55:19;13.70;99.90
27896;DHT22;15241;48.374;10.876;2022-09-29T11:00:28;13.50;99.90
27896;DHT22;15241;48.374;10.876;2022-09-29T11:05:27;13.70;99.90
27896;DHT22;15241;48.374;10.876;2022-09-29T11:10:32;13.90;99.90
27896;DHT22;15241;48.374;10.876;2022-09-29T11:20:47;14.00;99.90
27896;DHT22;15241;48.374;10.876;2022-09-29T11:25:56;13.80;99.90
27896;DHT22;15241;48.374;10.876;2022-09-29T11:31:03;13.70;99.90
27896;DHT22;15241;48.374;10.876;2022-09-29T11:36:06;13.10;99.90
27896;DHT22;15241;48.374;10.876;2022-09-29T11:41:11;12.80;99.90
27896;DHT22;15241;48.374;10.876;2022-09-29T11:46:26;13.00;99.90
27896;DHT22;15241;48.374;10.876;2022-09-29T11:51:32;13.10;99.90
27896;DHT22;15241;48.374;10.876;2022-09-29T11:56:34;13.10;99.90
27896;DHT22;15241;48.374;10.876;2022-09-29T12:01:45;12.90;99.90
27896;DHT22;15241;48.374;10.876;2022-09-29T12:06:54;13.30;99.90
27896;DHT22;15241;48.374;10.876;2022-09-29T12:17:10;13.40;99.90
27896;DHT22;15241;48.374;10.876;2022-09-29T12:22:13;13.20;99.90
27896;DHT22;15241;48.374;10.876;2022-09-29T12:27:15;13.50;99.90
27896;DHT22;15241;48.374;10.876;2022-09-29T12:32:17;13.60;99.90
27896;DHT22;15241;48.374;10.876;2022-09-29T12:37:20;13.70;99.90
27896;DHT22;15241;48.374;10.876;2022-09-29T12:42:37;13.40;99.90
27896;DHT22;15241;48.374;10.876;2022-09-29T12:47:47;13.10;99.90
27896;DHT22;15241;48.374;10.876;2022-09-29T12:52:50;13.30;99.90
27896;DHT22;15241;48.374;10.876;2022-09-29T12:57:50;13.30;99.90
27896;DHT22;15241;48.374;10.876;2022-09-29T13:03:15;13.30;99.90
27896;DHT22;15241;48.374;10.876;2022-09-29T13:08:32;13.40;99.90
27896;DHT22;15241;48.374;10.876;2022-09-29T13:19:30;13.20;99.90
27896;DHT22;15241;48.374;10.876;2022-09-29T13:24:36;12.90;99.90
27896;DHT22;15241;48.374;10.876;2022-09-29T13:29:41;12.90;99.90
27896;DHT22;15241;48.374;10.876;2022-09-29T13:34:44;13.00;99.90
27896;DHT22;15241;48.374;10.876;2022-09-29T13:39:42;13.20;99.90
27896;DHT22;15241;48.374;10.876;2022-09-29T13:44:42;13.30;99.90
27896;DHT22;15241;48.374;10.876;2022-09-29T13:49:43;13.30;99.90
27896;DHT22;15241;48.374;10.876;2022-09-29T13:54:42;13.10;99.90
27896;DHT22;15241;48.374;10.876;2022-09-29T13:59:43;13.10;99.90
27896;DHT22;15241;48.374;10.876;2022-09-29T14:04:52;13.10;99.90
27896;DHT22;15241;48.374;10.876;2022-09-29T14:09:51;13.10;99.90
27896;DHT22;15241;48.374;10.876;2022-09-29T14:14:55;12.80;99.90
27896;DHT22;15241;48.374;10.876;2022-09-29T14:30:53;13.00;99.90
27896;DHT22;15241;48.374;10.876;2022-09-29T14:36:01;12.90;99.90
27896;DHT22;15241;48.374;10.876;2022-09-29T14:41:19;12.70;99.90
27896;DHT22;15241;48.374;10.876;2022-09-29T14:46:34;12.70;99.90
27896;DHT22;15241;48.374;10.876;2022-09-29T14:51:36;12.60;99.90
27896;DHT22;15241;48.374;10.876;2022-09-29T14:56:43;12.50;99.90
27896;DHT22;15241;48.374;10.876;2022-09-29T15:01:56;12.70;99.90
27896;DHT22;15241;48.374;10.876;2022-09-29T15:06:55;12.60;99.90
27896;DHT22;15241;48.374;10.876;2022-09-29T15:11:54;12.80;99.90
27896;DHT22;15241;48.374;10.876;2022-09-29T15:17:04;12.70;99.90
27896;DHT22;15241;48.374;10.876;2022-09-29T15:22:07;12.40;99.90
27896;DHT22;15241;48.374;10.876;2022-09-29T15:27:08;12.50;99.90
27896;DHT22;15241;48.374;10.876;2022-09-29T15:37:36;12.40;99.90
27896;DHT22;15241;48.374;10.876;2022-09-29T15:42:33;12.30;99.90
27896;DHT22;15241;48.374;10.876;2022-09-29T15:47:36;12.20;99.90
27896;DHT22;15241;48.374;10.876;2022-09-29T15:52:35;12.30;99.90
27896;DHT22;15241;48.374;10.876;2022-09-29T15:57:45;12.30;99.90
27896;DHT22;15241;48.374;10.876;2022-09-29T16:02:44;12.20;99.90
27896;DHT22;15241;48.374;10.876;2022-09-29T16:07:49;12.30;99.90
27896;DHT22;15241;48.374;10.876;2022-09-29T16:12:52;12.30;99.90
27896;DHT22;15241;48.374;10.876;2022-09-29T16:17:52;12.40;99.90
27896;DHT22;15241;48.374;10.876;2022-09-29T16:22:51;12.40;99.90
27896;DHT22;15241;48.374;10.876;2022-09-29T16:27:55;12.30;99.90
27896;DHT22;15241;48.374;10.876;2022-09-29T16:32:53;12.30;99.90
27896;DHT22;15241;48.374;10.876;2022-09-29T16:37:53;12.30;99.90
27896;DHT22;15241;48.374;10.876;2022-09-29T16:42:53;12.30;99.90
27896;DHT22;15241;48.374;10.876;2022-09-29T16:47:51;12.30;99.90
27896;DHT22;15241;48.374;10.876;2022-09-29T16:52:50;12.30;99.90
27896;DHT22;15241;48.374;10.876;2022-09-29T16:57:55;12.20;99.90
27896;DHT22;15241;48.374;10.876;2022-09-29T17:02:55;12.20;99.90
27896;DHT22;15241;48.374;10.876;2022-09-29T17:08:00;12.20;99.90
27896;DHT22;15241;48.374;10.876;2022-09-29T17:13:01;12.20;99.90
27896;DHT22;15241;48.374;10.876;2022-09-29T17:18:01;12.20;99.90
27896;DHT22;15241;48.374;10.876;2022-09-29T17:23:00;12.10;99.90
27896;DHT22;15241;48.374;10.876;2022-09-29T17:27:59;12.20;99.90
27896;DHT22;15241;48.374;10.876;2022-09-29T17:32:59;12.10;99.90
27896;DHT22;15241;48.374;10.876;2022-09-29T17:37:58;12.10;99.90
27896;DHT22;15241;48.374;10.876;2022-09-29T17:42:57;12.10;99.90
27896;DHT22;15241;48.374;10.876;2022-09-29T17:47:56;12.10;99.90
27896;DHT22;15241;48.374;10.876;2022-09-29T17:52:55;12.00;99.90
27896;DHT22;15241;48.374;10.876;2022-09-29T17:57:55;12.00;99.90
27896;DHT22;15241;48.374;10.876;2022-09-29T18:02:53;12.00;99.90
27896;DHT22;15241;48.374;10.876;2022-09-29T18:07:54;12.00;99.90
27896;DHT22;15241;48.374;10.876;2022-09-29T18:12:53;11.90;99.90
27896;DHT22;15241;48.374;10.876;2022-09-29T18:17:56;11.90;99.90
27896;DHT22;15241;48.374;10.876;2022-09-29T18:22:56;11.90;99.90
27896;DHT22;15241;48.374;10.876;2022-09-29T18:27:55;11.80;99.90
27896;DHT22;15241;48.374;10.876;2022-09-29T18:32:57;11.80;99.90
27896;DHT22;15241;48.374;10.876;2022-09-29T18:37:56;11.70;99.90
27896;DHT22;15241;48.374;10.876;2022-09-29T18:42:55;11.70;99.90
27896;DHT22;15241;48.374;10.876;2022-09-29T18:47:57;11.70;99.90
27896;DHT22;15241;48.374;10.876;2022-09-29T18:52:57;11.60;99.90
27896;DHT22;15241;48.374;10.876;2022-09-29T18:57:57;11.60;99.90
27896;DHT22;15241;48.374;10.876;2022-09-29T19:02:57;11.70;99.90
27896;DHT22;15241;48.374;10.876;2022-09-29T19:07:57;11.60;99.90
27896;DHT22;15241;48.374;10.876;2022-09-29T19:12:57;11.60;99.90
27896;DHT22;15241;48.374;10.876;2022-09-29T19:17:56;11.60;99.90
27896;DHT22;15241;48.374;10.876;2022-09-29T19:22:56;11.40;99.90
27896;DHT22;15241;48.374;10.876;2022-09-29T19:27:55;11.50;99.90
27896;DHT22;15241;48.374;10.876;2022-09-29T19:32:54;11.50;99.90
27896;DHT22;15241;48.374;10.876;2022-09-29T19:37:53;11.60;99.90
27896;DHT22;15241;48.374;10.876;2022-09-29T19:42:52;11.50;99.90
27896;DHT22;15241;48.374;10.876;2022-09-29T19:47:51;11.60;99.90
27896;DHT22;15241;48.374;10.876;2022-09-29T19:52:50;11.60;99.90
27896;DHT22;15241;48.374;10.876;2022-09-29T19:57:49;11.50;99.90
27896;DHT22;15241;48.374;10.876;2022-09-29T20:02:48;11.50;99.90
27896;DHT22;15241;48.374;10.876;2022-09-29T20:07:47;11.50;99.90
27896;DHT22;15241;48.374;10.876;2022-09-29T20:12:46;11.50;99.90
27896;DHT22;15241;48.374;10.876;2022-09-29T20:17:45;11.40;99.90
27896;DHT22;15241;48.374;10.876;2022-09-29T20:22:44;11.40;99.90
27896;DHT22;15241;48.374;10.876;2022-09-29T20:27:43;11.40;99.90
27896;DHT22;15241;48.374;10.876;2022-09-29T20:32:42;11.40;99.90
27896;DHT22;15241;48.374;10.876;2022-09-29T20:37:41;11.40;99.90
27896;DHT22;15241;48.374;10.876;2022-09-29T20:42:40;11.40;99.90
27896;DHT22;15241;48.374;10.876;2022-09-29T20:47:39;11.40;99.90
27896;DHT22;15241;48.374;10.876;2022-09-29T20:52:37;11.40;99.90
27896;DHT22;15241;48.374;10.876;2022-09-29T20:57:36;11.40;99.90
27896;DHT22;15241;48.374;10.876;2022-09-29T21:02:35;11.40;99.90
27896;DHT22;15241;48.374;10.876;2022-09-29T21:07:34;11.50;99.90
27896;DHT22;15241;48.374;10.876;2022-09-29T21:12:33;11.50;99.90
27896;DHT22;15241;48.374;10.876;2022-09-29T21:17:32;11.40;99.90
27896;DHT22;15241;48.374;10.876;2022-09-29T21:22:31;11.40;99.90
27896;DHT22;15241;48.374;10.876;2022-09-29T21:27:30;11.40;99.90
27896;DHT22;15241;48.374;10.876;2022-09-29T21:32:29;11.50;99.90
27896;DHT22;15241;48.374;10.876;2022-09-29T21:37:28;11.40;99.90
27896;DHT22;15241;48.374;10.876;2022-09-29T21:42:27;11.40;99.90
27896;DHT22;15241;48.374;10.876;2022-09-29T21:47:25;11.40;99.90
27896;DHT22;15241;48.374;10.876;2022-09-29T21:52:24;11.40;99.90
27896;DHT22;15241;48.374;10.876;2022-09-29T21:57:23;11.30;99.90
27896;DHT22;15241;48.374;10.876;2022-09-29T22:02:22;11.40;99.90
27896;DHT22;15241;48.374;10.876;2022-09-29T22:07:22;11.40;99.90
27896;DHT22;15241;48.374;10.876;2022-09-29T22:12:21;11.40;99.90
27896;DHT22;15241;48.374;10.876;2022-09-29T22:17:20;11.40;99.90
27896;DHT22;15241;48.374;10.876;2022-09-29T22:22:18;11.40;99.90
27896;DHT22;15241;48.374;10.876;2022-09-29T22:27:18;11.40;99.90
27896;DHT22;15241;48.374;10.876;2022-09-29T22:32:17;11.40;99.90
27896;DHT22;15241;48.374;10.876;2022-09-29T22:37:16;11.30;99.90
27896;DHT22;15241;48.374;10.876;2022-09-29T22:42:15;11.30;99.90
27896;DHT22;15241;48.374;10.876;2022-09-29T22:47:14;11.30;99.90
27896;DHT22;15241;48.374;10.876;2022-09-29T22:52:12;11.30;99.90
27896;DHT22;15241;48.374;10.876;2022-09-29T22:57:11;11.30;99.90
27896;DHT22;15241;48.374;10.876;2022-09-29T23:02:10;11.20;99.90
27896;DHT22;15241;48.374;10.876;2022-09-29T23:07:10;11.20;99.90
27896;DHT22;15241;48.374;10.876;2022-09-29T23:12:09;11.20;99.90
27896;DHT22;15241;48.374;10.876;2022-09-29T23:17:07;11.20;99.90
27896;DHT22;15241;48.374;10.876;2022-09-29T23:22:06;11.30;99.90
27896;DHT22;15241;48.374;10.876;2022-09-29T23:27:05;11.20;99.90
27896;DHT22;15241;48.374;10.876;2022-09-29T23:32:04;11.20;99.90
27896;DHT22;15241;48.374;10.876;2022-09-29T23:37:03;11.20;99.90
27896;DHT22;15241;48.374;10.876;2022-09-29T23:42:02;11.10;99.90
27896;DHT22;15241;48.374;10.876;2022-09-29T23:47:01;11.10;99.90
27896;DHT22;15241;48.374;10.876;2022-09-29T23:52:01;11.00;99.90
27896;DHT22;15241;48.374;10.876;2022-09-29T23:57:00;11.00;99.90
